createdAt,value
2022-10-06T00:01:16.446Z,10.66
2022-10-06T00:02:19.988Z,10.70
2022-10-06T00:03:23.309Z,10.69
2022-10-06T00:04:26.292Z,10.69
2022-10-06T00:05:29.578Z,10.67
2022-10-06T00:06:33.599Z,10.68
2022-10-06T00:07:36.857Z,10.71
2022-10-06T00:08:41.614Z,10.72
2022-10-06T00:09:44.479Z,10.74
2022-10-06T00:10:47.313Z,10.71
2022-10-06T00:11:50.053Z,10.72
2022-10-06T00:12:52.885Z,10.70
2022-10-06T00:13:55.701Z,10.70
2022-10-06T00:14:58.540Z,10.69
2022-10-06T00:16:02.463Z,10.68
2022-10-06T00:17:05.578Z,10.67
2022-10-06T00:18:08.341Z,10.67
2022-10-06T00:19:11.143Z,10.76
2022-10-06T00:20:14.698Z,10.82
2022-10-06T00:21:17.887Z,10.82
2022-10-06T00:22:20.653Z,10.82
2022-10-06T00:23:23.592Z,10.82
2022-10-06T00:24:27.419Z,10.84
2022-10-06T00:25:30.255Z,10.84
2022-10-06T00:26:33.227Z,10.82
2022-10-06T00:27:38.935Z,10.79
2022-10-06T00:28:41.761Z,10.79
2022-10-06T00:29:44.711Z,10.77
2022-10-06T00:30:48.006Z,10.79
2022-10-06T00:31:50.815Z,10.77
2022-10-06T00:32:59.174Z,10.76
2022-10-06T00:34:02.086Z,10.72
2022-10-06T00:35:05.820Z,10.73
2022-10-06T00:36:09.098Z,10.72
2022-10-06T00:37:11.997Z,10.68
2022-10-06T00:38:17.097Z,10.66
2022-10-06T00:39:20.565Z,10.64
2022-10-06T00:40:23.845Z,10.63
2022-10-06T00:41:26.765Z,10.60
2022-10-06T00:42:32.637Z,10.62
2022-10-06T00:43:57.192Z,10.62
2022-10-06T00:45:06.698Z,10.58
2022-10-06T00:46:18.477Z,10.54
2022-10-06T00:47:25.093Z,10.48
2022-10-06T00:48:29.213Z,10.48
2022-10-06T00:49:37.547Z,10.46
2022-10-06T00:50:41.410Z,10.43
2022-10-06T00:51:48.478Z,10.41
2022-10-06T00:52:51.278Z,10.38
2022-10-06T00:53:53.978Z,10.39
2022-10-06T00:54:59.391Z,10.44
2022-10-06T00:56:02.299Z,10.43
2022-10-06T00:57:06.496Z,10.40
2022-10-06T00:58:11.288Z,10.38
2022-10-06T00:59:17.353Z,10.37
2022-10-06T01:00:20.849Z,10.34
2022-10-06T01:01:25.244Z,10.31
2022-10-06T01:02:43.003Z,10.32
2022-10-06T01:03:52.861Z,10.39
2022-10-06T01:05:00.952Z,10.39
2022-10-06T01:06:05.357Z,10.35
2022-10-06T01:07:08.837Z,10.29
2022-10-06T01:08:12.343Z,10.27
2022-10-06T01:10:25.187Z,10.25
2022-10-06T01:11:27.928Z,10.24
2022-10-06T01:12:33.631Z,10.21
2022-10-06T01:13:36.494Z,10.22
2022-10-06T01:14:40.420Z,10.21
2022-10-06T01:16:12.496Z,10.16
2022-10-06T01:17:29.406Z,10.12
2022-10-06T01:18:33.450Z,10.07
2022-10-06T01:19:46.391Z,10.04
2022-10-06T01:20:55.748Z,10.03
2022-10-06T01:22:05.035Z,10.01
2022-10-06T01:23:10.805Z,9.97
2022-10-06T01:24:13.775Z,9.93
2022-10-06T01:25:18.833Z,9.91
2022-10-06T01:26:24.828Z,9.87
2022-10-06T01:27:31.054Z,9.84
2022-10-06T01:28:34.417Z,9.80
2022-10-06T01:29:38.170Z,9.77
2022-10-06T01:30:52.225Z,9.72
2022-10-06T01:31:55.470Z,9.69
2022-10-06T01:32:58.589Z,9.67
2022-10-06T01:34:01.385Z,9.63
2022-10-06T01:35:05.273Z,9.58
2022-10-06T01:36:08.198Z,9.53
2022-10-06T01:37:11.081Z,9.50
2022-10-06T01:38:14.069Z,9.47
2022-10-06T01:39:16.911Z,9.43
2022-10-06T01:40:19.918Z,9.41
2022-10-06T01:41:22.840Z,9.37
2022-10-06T01:42:26.039Z,9.34
2022-10-06T01:43:28.824Z,9.32
2022-10-06T01:44:31.661Z,9.29
2022-10-06T01:45:34.415Z,9.26
2022-10-06T01:46:37.316Z,9.23
2022-10-06T01:47:40.114Z,9.19
2022-10-06T01:48:42.974Z,9.17
2022-10-06T01:49:45.740Z,9.16
2022-10-06T01:50:48.597Z,9.15
2022-10-06T01:51:51.384Z,9.14
2022-10-06T01:52:56.738Z,9.13
2022-10-06T01:53:59.706Z,9.13
2022-10-06T01:55:02.915Z,9.12
2022-10-06T01:56:06.114Z,9.12
2022-10-06T01:57:09.154Z,9.10
2022-10-06T01:58:12.625Z,9.10
2022-10-06T01:59:15.377Z,9.09
2022-10-06T02:00:18.628Z,9.07
2022-10-06T02:01:21.614Z,9.04
2022-10-06T02:02:24.474Z,9.04
2022-10-06T02:03:27.264Z,9.03
2022-10-06T02:04:30.240Z,9.03
2022-10-06T02:05:33.340Z,9.01
2022-10-06T02:06:36.283Z,8.99
2022-10-06T02:07:39.574Z,8.97
2022-10-06T02:08:42.534Z,8.96
2022-10-06T02:09:45.379Z,8.95
2022-10-06T02:10:48.172Z,8.91
2022-10-06T02:11:51.229Z,8.90
2022-10-06T02:12:54.569Z,8.89
2022-10-06T02:13:57.355Z,8.90
2022-10-06T02:15:00.072Z,8.88
2022-10-06T02:16:02.914Z,8.87
2022-10-06T02:17:06.841Z,8.87
2022-10-06T02:18:09.829Z,8.85
2022-10-06T02:19:12.801Z,8.87
2022-10-06T02:20:16.166Z,8.86
2022-10-06T02:21:21.335Z,8.86
2022-10-06T02:22:24.161Z,8.86
2022-10-06T02:23:27.468Z,8.86
2022-10-06T02:24:30.462Z,8.87
2022-10-06T02:25:33.301Z,8.89
2022-10-06T02:26:36.156Z,8.90
2022-10-06T02:27:39.820Z,8.90
2022-10-06T02:28:44.448Z,8.88
2022-10-06T02:29:49.387Z,8.86
2022-10-06T02:30:52.396Z,8.85
2022-10-06T02:31:55.986Z,8.84
2022-10-06T02:32:58.731Z,8.84
2022-10-06T02:34:02.533Z,8.83
2022-10-06T02:35:06.829Z,8.84
2022-10-06T02:36:14.703Z,8.83
2022-10-06T02:37:17.594Z,8.84
2022-10-06T02:38:20.381Z,8.85
2022-10-06T02:40:31.333Z,8.84
2022-10-06T02:41:34.261Z,8.85
2022-10-06T02:42:41.748Z,8.85
2022-10-06T02:43:44.772Z,8.85
2022-10-06T02:44:47.573Z,8.84
2022-10-06T02:45:58.584Z,8.82
2022-10-06T02:47:01.473Z,8.82
2022-10-06T02:48:04.559Z,8.80
2022-10-06T02:49:07.429Z,8.79
2022-10-06T02:50:10.657Z,8.78
2022-10-06T02:51:15.936Z,8.75
2022-10-06T02:52:18.755Z,8.76
2022-10-06T02:53:21.544Z,8.74
2022-10-06T02:54:24.241Z,8.74
2022-10-06T02:55:27.208Z,8.72
2022-10-06T02:56:29.973Z,8.73
2022-10-06T02:57:32.825Z,8.71
2022-10-06T02:58:35.738Z,8.71
2022-10-06T02:59:38.866Z,8.71
2022-10-06T03:00:41.669Z,8.70
2022-10-06T03:01:44.584Z,8.71
2022-10-06T03:02:47.576Z,8.72
2022-10-06T03:03:50.614Z,8.74
2022-10-06T03:04:53.347Z,8.76
2022-10-06T03:06:01.083Z,8.77
2022-10-06T03:07:04.228Z,8.78
2022-10-06T03:08:06.973Z,8.78
2022-10-06T03:09:10.529Z,8.77
2022-10-06T03:10:13.337Z,8.76
2022-10-06T03:11:16.699Z,8.73
2022-10-06T03:12:19.428Z,8.72
2022-10-06T03:13:22.213Z,8.73
2022-10-06T03:14:25.063Z,8.73
2022-10-06T03:15:28.630Z,8.71
2022-10-06T03:16:39.241Z,8.70
2022-10-06T03:17:42.007Z,8.69
2022-10-06T03:18:50.239Z,8.70
2022-10-06T03:19:53.017Z,8.68
2022-10-06T03:21:00.850Z,8.69
2022-10-06T03:22:04.779Z,8.68
2022-10-06T03:23:12.725Z,8.68
2022-10-06T03:24:16.700Z,8.68
2022-10-06T03:25:19.413Z,8.67
2022-10-06T03:26:27.314Z,8.66
2022-10-06T03:27:30.045Z,8.67
2022-10-06T03:28:33.726Z,8.65
2022-10-06T03:29:36.736Z,8.66
2022-10-06T03:30:39.500Z,8.63
2022-10-06T03:31:43.594Z,8.63
2022-10-06T03:32:46.533Z,8.64
2022-10-06T03:33:49.507Z,8.63
2022-10-06T03:34:53.543Z,8.64
2022-10-06T03:36:01.095Z,8.61
2022-10-06T03:37:04.072Z,8.60
2022-10-06T03:38:09.968Z,8.59
2022-10-06T03:39:13.768Z,8.59
2022-10-06T03:40:16.563Z,8.58
2022-10-06T03:41:25.305Z,8.56
2022-10-06T03:42:28.044Z,8.57
2022-10-06T03:43:30.887Z,8.55
2022-10-06T03:44:35.262Z,8.55
2022-10-06T03:45:38.135Z,8.54
2022-10-06T03:46:41.203Z,8.55
2022-10-06T03:47:43.925Z,8.55
2022-10-06T03:48:48.377Z,8.55
2022-10-06T03:49:51.105Z,8.54
2022-10-06T03:50:58.116Z,8.52
2022-10-06T03:52:00.878Z,8.53
2022-10-06T03:53:03.750Z,8.52
2022-10-06T03:54:10.951Z,8.51
2022-10-06T03:55:13.771Z,8.52
2022-10-06T03:56:18.694Z,8.52
2022-10-06T03:57:21.543Z,8.51
2022-10-06T03:58:24.335Z,8.52
2022-10-06T03:59:29.457Z,8.51
2022-10-06T04:00:32.287Z,8.51
2022-10-06T04:01:40.642Z,8.50
2022-10-06T04:02:43.396Z,8.49
2022-10-06T04:03:46.186Z,8.48
2022-10-06T04:04:48.919Z,8.48
2022-10-06T04:05:56.542Z,8.48
2022-10-06T04:06:59.332Z,8.51
2022-10-06T04:08:02.504Z,8.51
2022-10-06T04:09:12.561Z,8.53
2022-10-06T04:10:17.650Z,8.54
2022-10-06T04:11:29.299Z,8.55
2022-10-06T04:12:31.889Z,8.56
2022-10-06T04:13:34.699Z,8.55
2022-10-06T04:14:37.524Z,8.53
2022-10-06T04:15:40.336Z,8.50
2022-10-06T04:16:45.968Z,8.49
2022-10-06T04:17:48.818Z,8.47
2022-10-06T04:18:54.325Z,8.46
2022-10-06T04:19:57.143Z,8.45
2022-10-06T04:21:00.626Z,8.44
2022-10-06T04:22:03.478Z,8.44
2022-10-06T04:23:06.763Z,8.43
2022-10-06T04:24:13.805Z,8.45
2022-10-06T04:25:19.644Z,8.45
2022-10-06T04:26:24.756Z,8.44
2022-10-06T04:27:27.694Z,8.43
2022-10-06T04:28:31.012Z,8.41
2022-10-06T04:29:33.977Z,8.39
2022-10-06T04:30:36.750Z,8.38
2022-10-06T04:31:41.276Z,8.37
2022-10-06T04:32:46.002Z,8.37
2022-10-06T04:33:52.169Z,8.36
2022-10-06T04:34:55.079Z,8.37
2022-10-06T04:36:03.275Z,8.36
2022-10-06T04:37:06.227Z,8.37
2022-10-06T04:38:09.672Z,8.35
2022-10-06T04:39:13.248Z,8.34
2022-10-06T04:40:16.514Z,8.33
2022-10-06T04:41:20.517Z,8.30
2022-10-06T04:42:23.604Z,8.31
2022-10-06T04:43:28.184Z,8.29
2022-10-06T04:44:31.078Z,8.29
2022-10-06T04:45:33.760Z,8.29
2022-10-06T04:46:44.914Z,8.28
2022-10-06T04:47:50.363Z,8.28
2022-10-06T04:48:54.840Z,8.30
2022-10-06T04:49:57.553Z,8.32
2022-10-06T04:51:03.895Z,8.31
2022-10-06T04:52:06.642Z,8.29
2022-10-06T04:53:09.494Z,8.30
2022-10-06T04:54:12.528Z,8.33
2022-10-06T04:55:15.339Z,8.34
2022-10-06T04:56:33.770Z,8.35
2022-10-06T04:57:36.539Z,8.37
2022-10-06T04:58:42.123Z,8.31
2022-10-06T05:00:08.887Z,8.26
2022-10-06T05:01:20.853Z,8.25
2022-10-06T05:02:23.729Z,8.28
2022-10-06T05:03:29.249Z,8.28
2022-10-06T05:04:31.985Z,8.27
2022-10-06T05:05:35.774Z,8.26
2022-10-06T05:06:41.441Z,8.24
2022-10-06T05:07:45.616Z,8.23
2022-10-06T05:09:02.864Z,8.21
2022-10-06T05:10:06.225Z,8.24
2022-10-06T05:11:15.139Z,8.25
2022-10-06T05:12:19.642Z,8.26
2022-10-06T05:13:22.371Z,8.25
2022-10-06T05:14:25.161Z,8.29
2022-10-06T05:15:28.451Z,8.32
2022-10-06T05:16:32.042Z,8.34
2022-10-06T05:17:34.788Z,8.34
2022-10-06T05:18:38.801Z,8.35
2022-10-06T05:19:41.494Z,8.35
2022-10-06T05:20:44.263Z,8.38
2022-10-06T05:21:47.016Z,8.38
2022-10-06T05:22:49.987Z,8.39
2022-10-06T05:23:53.235Z,8.41
2022-10-06T05:24:55.913Z,8.41
2022-10-06T05:25:59.069Z,8.37
2022-10-06T05:27:04.032Z,8.40
2022-10-06T05:28:06.824Z,8.42
2022-10-06T05:29:15.629Z,8.46
2022-10-06T05:30:19.811Z,8.49
2022-10-06T05:31:24.625Z,8.48
2022-10-06T05:32:27.577Z,8.48
2022-10-06T05:33:32.437Z,8.46
2022-10-06T05:34:35.244Z,8.43
2022-10-06T05:35:38.003Z,8.43
2022-10-06T05:36:40.994Z,8.42
2022-10-06T05:37:44.001Z,8.43
2022-10-06T05:38:47.841Z,8.45
2022-10-06T05:39:50.698Z,8.47
2022-10-06T05:41:13.688Z,8.49
2022-10-06T05:42:16.577Z,8.51
2022-10-06T05:43:19.341Z,8.55
2022-10-06T05:44:22.206Z,8.56
2022-10-06T05:45:24.989Z,8.59
2022-10-06T05:46:30.029Z,8.60
2022-10-06T05:47:32.841Z,8.61
2022-10-06T05:48:35.626Z,8.62
2022-10-06T05:49:38.452Z,8.64
2022-10-06T05:50:41.134Z,8.67
2022-10-06T05:51:44.038Z,8.72
2022-10-06T05:52:47.001Z,8.73
2022-10-06T05:53:50.056Z,8.77
2022-10-06T05:54:52.896Z,8.80
2022-10-06T05:56:09.869Z,8.81
2022-10-06T05:57:12.977Z,8.82
2022-10-06T05:58:18.470Z,8.88
2022-10-06T05:59:21.497Z,8.92
2022-10-06T06:00:24.292Z,8.95
2022-10-06T06:01:32.389Z,8.98
2022-10-06T06:02:35.302Z,9.01
2022-10-06T06:03:39.897Z,9.02
2022-10-06T06:04:42.861Z,9.03
2022-10-06T06:05:46.141Z,9.07
2022-10-06T06:06:49.037Z,9.09
2022-10-06T06:07:51.989Z,9.11
2022-10-06T06:09:08.958Z,9.15
2022-10-06T06:10:11.818Z,9.18
2022-10-06T06:11:15.077Z,9.21
2022-10-06T06:12:17.924Z,9.25
2022-10-06T06:13:24.189Z,9.33
2022-10-06T06:14:45.721Z,9.34
2022-10-06T06:16:00.786Z,9.36
2022-10-06T06:17:03.632Z,9.38
2022-10-06T06:18:06.638Z,9.41
2022-10-06T06:19:11.412Z,9.43
2022-10-06T06:20:14.229Z,9.46
2022-10-06T06:21:17.169Z,9.49
2022-10-06T06:22:21.333Z,9.52
2022-10-06T06:23:25.077Z,9.54
2022-10-06T06:24:27.817Z,9.56
2022-10-06T06:25:30.557Z,9.58
2022-10-06T06:26:39.571Z,9.61
2022-10-06T06:27:42.477Z,9.67
2022-10-06T06:28:46.698Z,9.70
2022-10-06T06:29:50.247Z,9.71
2022-10-06T06:31:20.346Z,9.73
2022-10-06T06:32:23.467Z,9.74
2022-10-06T06:33:26.207Z,9.76
2022-10-06T06:34:29.378Z,9.76
2022-10-06T06:35:32.167Z,9.79
2022-10-06T06:36:41.284Z,9.82
2022-10-06T06:37:45.275Z,9.83
2022-10-06T06:40:58.880Z,9.89
2022-10-06T06:42:02.824Z,9.91
2022-10-06T06:43:06.177Z,9.92
2022-10-06T06:44:11.721Z,9.94
2022-10-06T06:45:14.990Z,9.95
2022-10-06T06:46:20.383Z,9.97
2022-10-06T06:47:25.925Z,9.98
2022-10-06T06:48:30.568Z,10.01
2022-10-06T06:49:33.658Z,10.04
2022-10-06T06:50:37.749Z,10.06
2022-10-06T06:51:43.258Z,10.09
2022-10-06T06:52:46.561Z,10.12
2022-10-06T06:53:50.139Z,10.12
2022-10-06T06:54:52.909Z,10.14
2022-10-06T06:55:55.858Z,10.16
2022-10-06T06:56:59.096Z,10.21
2022-10-06T06:58:02.099Z,10.23
2022-10-06T06:59:10.777Z,10.26
2022-10-06T07:00:14.296Z,10.31
2022-10-06T07:01:24.871Z,10.35
2022-10-06T07:02:30.106Z,10.41
2022-10-06T07:03:55.949Z,10.45
2022-10-06T07:04:55.778Z,10.49
2022-10-06T07:06:10.250Z,10.55
2022-10-06T07:07:13.059Z,10.57
2022-10-06T07:08:20.698Z,10.62
2022-10-06T07:09:23.769Z,10.66
2022-10-06T07:10:28.317Z,10.72
2022-10-06T07:11:34.410Z,10.77
2022-10-06T07:12:37.338Z,10.83
2022-10-06T07:13:40.778Z,10.89
2022-10-06T07:15:03.586Z,10.92
2022-10-06T07:18:15.756Z,11.07
2022-10-06T07:19:39.628Z,11.18
2022-10-06T07:21:00.826Z,11.24
2022-10-06T07:22:27.086Z,11.33
2022-10-06T07:23:48.206Z,11.40
2022-10-06T07:25:11.778Z,11.47
2022-10-06T07:26:14.546Z,11.53
2022-10-06T07:27:17.256Z,11.62
2022-10-06T07:28:20.060Z,11.70
2022-10-06T07:29:22.778Z,11.78
2022-10-06T07:30:28.686Z,11.84
2022-10-06T07:31:33.703Z,11.93
2022-10-06T07:32:37.949Z,11.98
2022-10-06T07:33:41.106Z,12.06
2022-10-06T07:35:53.855Z,12.18
2022-10-06T07:36:59.667Z,12.24
2022-10-06T07:38:08.116Z,12.29
2022-10-06T07:39:10.825Z,12.36
2022-10-06T07:40:15.016Z,12.42
2022-10-06T07:41:20.044Z,12.47
2022-10-06T07:42:23.774Z,12.57
2022-10-06T07:43:26.365Z,12.66
2022-10-06T07:44:29.056Z,12.74
2022-10-06T07:45:46.579Z,12.78
2022-10-06T07:46:49.166Z,12.82
2022-10-06T07:47:58.846Z,12.87
2022-10-06T07:49:01.465Z,12.94
2022-10-06T07:50:06.969Z,13.04
2022-10-06T07:51:28.566Z,13.15
2022-10-06T07:52:31.342Z,13.28
2022-10-06T07:53:35.775Z,13.39
2022-10-06T07:54:38.396Z,13.49
2022-10-06T07:55:44.746Z,13.51
2022-10-06T07:56:47.377Z,13.57
2022-10-06T07:57:51.446Z,13.65
2022-10-06T07:58:54.175Z,13.72
2022-10-06T08:00:02.086Z,13.83
2022-10-06T08:01:08.466Z,13.95
2022-10-06T08:02:11.154Z,14.07
2022-10-06T08:03:18.365Z,14.16
2022-10-06T08:04:26.128Z,14.22
2022-10-06T08:05:33.357Z,14.34
2022-10-06T08:06:36.268Z,14.46
2022-10-06T08:07:38.853Z,14.52
2022-10-06T08:08:42.937Z,14.61
2022-10-06T08:09:45.485Z,14.66
2022-10-06T08:11:01.583Z,14.71
2022-10-06T08:12:24.616Z,14.77
2022-10-06T08:13:29.333Z,14.77
2022-10-06T08:14:31.936Z,14.83
2022-10-06T08:15:34.825Z,14.90
2022-10-06T08:16:37.635Z,14.96
2022-10-06T08:17:41.766Z,15.00
2022-10-06T08:18:52.765Z,15.01
2022-10-06T08:19:55.425Z,15.08
2022-10-06T08:20:58.903Z,15.11
2022-10-06T08:22:04.859Z,15.18
2022-10-06T08:23:09.065Z,15.20
2022-10-06T08:24:11.635Z,15.25
2022-10-06T08:25:20.629Z,15.27
2022-10-06T08:26:25.349Z,15.31
2022-10-06T08:27:29.255Z,15.35
2022-10-06T08:28:33.010Z,15.37
2022-10-06T08:29:36.285Z,15.41
2022-10-06T08:30:39.915Z,15.51
2022-10-06T08:31:42.517Z,15.52
2022-10-06T08:32:47.691Z,15.57
2022-10-06T08:33:56.266Z,15.68
2022-10-06T08:34:59.103Z,15.89
2022-10-06T08:36:08.827Z,16.01
2022-10-06T08:37:19.974Z,16.19
2022-10-06T08:38:23.215Z,16.33
2022-10-06T08:39:25.815Z,16.38
2022-10-06T08:40:29.574Z,16.41
2022-10-06T08:41:51.250Z,16.54
2022-10-06T08:42:58.385Z,16.63
2022-10-06T08:44:05.765Z,16.61
2022-10-06T08:45:14.846Z,16.57
2022-10-06T08:46:21.109Z,16.69
2022-10-06T08:47:33.784Z,16.64
2022-10-06T08:48:38.938Z,16.68
2022-10-06T08:49:44.925Z,16.68
2022-10-06T08:50:50.341Z,16.78
2022-10-06T08:52:08.873Z,16.96
2022-10-06T08:53:21.936Z,17.07
2022-10-06T08:54:51.986Z,17.06
2022-10-06T08:56:05.247Z,17.10
2022-10-06T08:57:22.586Z,17.15
2022-10-06T08:58:52.165Z,17.19
2022-10-06T08:59:55.107Z,17.27
2022-10-06T09:01:16.841Z,17.29
2022-10-06T09:02:25.987Z,17.48
2022-10-06T09:03:30.256Z,17.59
2022-10-06T09:04:34.430Z,17.57
2022-10-06T09:05:38.105Z,17.65
2022-10-06T09:06:52.210Z,17.71
2022-10-06T09:08:11.105Z,17.77
2022-10-06T09:09:41.976Z,17.79
2022-10-06T09:10:59.615Z,17.80
2022-10-06T09:12:07.027Z,17.83
2022-10-06T09:13:22.097Z,17.88
2022-10-06T09:14:37.707Z,17.92
2022-10-06T09:16:10.071Z,18.09
2022-10-06T09:17:19.176Z,18.16
2022-10-06T09:18:49.858Z,18.23
2022-10-06T09:20:05.598Z,18.25
2022-10-06T09:21:17.366Z,18.38
2022-10-06T09:22:21.187Z,18.50
2022-10-06T09:23:44.117Z,18.57
2022-10-06T09:24:50.614Z,18.67
2022-10-06T09:25:57.926Z,18.90
2022-10-06T09:27:12.965Z,19.03
2022-10-06T09:28:16.822Z,19.06
2022-10-06T09:29:19.756Z,19.02
2022-10-06T09:30:22.994Z,19.03
2022-10-06T09:31:40.473Z,19.17
2022-10-06T09:33:00.245Z,19.24
2022-10-06T09:34:12.767Z,19.18
2022-10-06T09:35:21.897Z,19.17
2022-10-06T09:36:24.746Z,19.10
2022-10-06T09:37:27.925Z,19.14
2022-10-06T09:38:49.046Z,19.17
2022-10-06T09:39:53.513Z,19.17
2022-10-06T09:40:56.515Z,19.21
2022-10-06T09:42:03.735Z,19.25
2022-10-06T09:43:19.336Z,19.39
2022-10-06T09:44:25.224Z,19.54
2022-10-06T09:45:29.391Z,19.59
2022-10-06T09:46:41.938Z,19.59
2022-10-06T09:47:45.905Z,19.60
2022-10-06T09:48:48.826Z,19.61
2022-10-06T09:50:28.177Z,19.50
2022-10-06T09:51:34.135Z,19.39
2022-10-06T09:52:36.938Z,19.37
2022-10-06T09:53:39.997Z,19.29
2022-10-06T09:54:43.946Z,19.29
2022-10-06T09:55:55.417Z,19.38
2022-10-06T09:56:59.545Z,19.49
2022-10-06T09:58:03.112Z,19.48
2022-10-06T09:59:18.725Z,19.45
2022-10-06T10:00:36.133Z,19.53
2022-10-06T10:01:38.908Z,19.63
2022-10-06T10:02:42.173Z,19.74
2022-10-06T10:04:15.611Z,19.81
2022-10-06T10:05:22.651Z,19.83
2022-10-06T10:06:30.543Z,19.85
2022-10-06T10:07:35.270Z,19.81
2022-10-06T10:08:38.088Z,19.75
2022-10-06T10:09:44.015Z,19.89
2022-10-06T10:10:46.667Z,19.99
2022-10-06T10:12:24.704Z,20.00
2022-10-06T10:13:29.585Z,20.02
2022-10-06T10:14:38.907Z,20.10
2022-10-06T10:15:52.578Z,20.12
2022-10-06T10:16:55.336Z,20.20
2022-10-06T10:18:01.475Z,20.27
2022-10-06T10:19:07.058Z,20.17
2022-10-06T10:20:29.899Z,20.09
2022-10-06T10:21:35.285Z,20.11
2022-10-06T10:22:41.094Z,20.25
2022-10-06T10:23:57.425Z,20.30
2022-10-06T10:25:07.238Z,20.25
2022-10-06T10:26:29.177Z,20.14
2022-10-06T10:27:45.665Z,19.96
2022-10-06T10:29:15.292Z,19.75
2022-10-06T10:30:18.726Z,19.61
2022-10-06T10:31:32.538Z,19.47
2022-10-06T10:33:18.905Z,19.48
2022-10-06T10:34:33.806Z,19.64
2022-10-06T10:35:41.887Z,19.49
2022-10-06T10:36:52.505Z,19.31
2022-10-06T10:37:55.166Z,19.35
2022-10-06T10:38:58.915Z,19.55
2022-10-06T10:40:43.324Z,19.52
2022-10-06T10:41:51.135Z,19.64
2022-10-06T10:43:12.557Z,19.72
2022-10-06T10:44:36.106Z,19.75
2022-10-06T10:45:48.786Z,19.82
2022-10-06T10:47:01.665Z,19.90
2022-10-06T10:48:15.785Z,19.81
2022-10-06T10:49:28.545Z,19.66
2022-10-06T10:50:39.546Z,19.76
2022-10-06T10:51:50.515Z,19.90
2022-10-06T10:52:59.906Z,20.06
2022-10-06T10:54:17.085Z,20.21
2022-10-06T10:55:28.826Z,20.33
2022-10-06T10:56:33.807Z,20.40
2022-10-06T10:57:41.585Z,20.51
2022-10-06T10:58:47.016Z,20.58
2022-10-06T10:59:55.685Z,20.61
2022-10-06T11:01:25.780Z,20.61
2022-10-06T11:02:28.940Z,20.65
2022-10-06T11:03:31.765Z,20.60
2022-10-06T11:04:37.855Z,20.58
2022-10-06T11:05:43.715Z,20.48
2022-10-06T11:06:54.474Z,20.36
2022-10-06T11:08:38.597Z,20.38
2022-10-06T11:09:49.528Z,20.38
2022-10-06T11:10:58.979Z,20.22
2022-10-06T11:12:40.485Z,20.05
2022-10-06T11:13:47.205Z,19.96
2022-10-06T11:15:01.670Z,19.99
2022-10-06T11:16:23.051Z,19.92
2022-10-06T11:17:45.505Z,19.85
2022-10-06T11:19:08.976Z,19.88
2022-10-06T11:20:23.368Z,20.11
2022-10-06T11:21:31.856Z,20.12
2022-10-06T11:22:53.077Z,20.15
2022-10-06T11:24:25.416Z,20.20
2022-10-06T11:25:41.090Z,20.30
2022-10-06T11:27:08.455Z,20.31
2022-10-06T11:28:29.175Z,20.26
2022-10-06T11:29:35.785Z,20.24
2022-10-06T11:31:01.276Z,20.31
2022-10-06T11:32:28.357Z,20.28
2022-10-06T11:33:34.006Z,20.42
2022-10-06T11:34:36.846Z,20.31
2022-10-06T11:35:43.376Z,20.37
2022-10-06T11:37:32.877Z,20.48
2022-10-06T11:38:41.987Z,20.41
2022-10-06T11:39:57.182Z,20.44
2022-10-06T11:41:38.977Z,20.43
2022-10-06T11:42:50.725Z,20.50
2022-10-06T11:44:17.745Z,20.50
2022-10-06T11:45:29.758Z,20.44
2022-10-06T11:46:49.536Z,20.37
2022-10-06T11:48:07.145Z,20.40
2022-10-06T11:49:28.509Z,20.38
2022-10-06T11:50:42.476Z,20.39
2022-10-06T11:51:45.207Z,20.50
2022-10-06T11:52:47.867Z,20.50
2022-10-06T11:53:53.309Z,20.50
2022-10-06T11:55:17.209Z,20.47
2022-10-06T11:56:19.788Z,20.46
2022-10-06T11:57:25.013Z,20.53
2022-10-06T11:58:51.208Z,20.48
2022-10-06T12:00:14.686Z,20.29
2022-10-06T12:01:35.332Z,20.19
2022-10-06T12:02:40.571Z,20.18
2022-10-06T12:03:48.654Z,20.35
2022-10-06T12:05:23.152Z,20.39
2022-10-06T12:06:44.304Z,20.23
2022-10-06T12:07:52.599Z,20.25
2022-10-06T12:08:55.298Z,20.33
2022-10-06T12:10:30.176Z,20.28
2022-10-06T12:11:43.166Z,20.22
2022-10-06T12:13:06.272Z,20.23
2022-10-06T12:17:55.064Z,20.38
2022-10-06T12:19:26.369Z,20.35
2022-10-06T12:20:48.161Z,20.31
2022-10-06T12:21:54.620Z,20.37
2022-10-06T12:23:43.683Z,20.40
2022-10-06T12:25:02.439Z,20.53
2022-10-06T12:26:14.467Z,20.54
2022-10-06T12:27:29.949Z,20.68
2022-10-06T12:28:49.940Z,20.75
2022-10-06T12:30:17.071Z,20.79
2022-10-06T12:31:39.982Z,20.85
2022-10-06T12:32:49.325Z,20.87
2022-10-06T12:33:52.777Z,20.93
2022-10-06T12:35:03.397Z,20.90
2022-10-06T12:36:18.256Z,20.92
2022-10-06T12:37:30.056Z,20.96
2022-10-06T12:38:43.266Z,20.88
2022-10-06T12:39:45.894Z,20.90
2022-10-06T12:40:51.393Z,21.02
2022-10-06T12:41:58.307Z,20.98
2022-10-06T12:43:54.078Z,20.95
2022-10-06T12:44:56.917Z,20.92
2022-10-06T12:46:13.256Z,20.92
2022-10-06T12:47:32.733Z,20.96
2022-10-06T12:48:44.054Z,21.00
2022-10-06T12:49:47.866Z,21.01
2022-10-06T12:50:58.244Z,21.08
2022-10-06T12:52:10.178Z,20.99
2022-10-06T12:53:20.940Z,20.96
2022-10-06T12:54:40.120Z,20.96
2022-10-06T12:55:57.033Z,20.89
2022-10-06T12:57:18.737Z,20.79
2022-10-06T12:58:32.765Z,20.78
2022-10-06T12:59:38.728Z,20.83
2022-10-06T13:00:43.614Z,20.88
2022-10-06T13:01:51.839Z,20.99
2022-10-06T13:02:57.968Z,21.01
2022-10-06T13:04:00.664Z,20.90
2022-10-06T13:05:11.619Z,20.83
2022-10-06T13:06:14.479Z,20.84
2022-10-06T13:07:22.844Z,20.82
2022-10-06T13:08:35.832Z,20.87
2022-10-06T13:09:38.750Z,20.79
2022-10-06T13:10:41.563Z,20.75
2022-10-06T13:11:44.261Z,20.79
2022-10-06T13:12:50.323Z,20.78
2022-10-06T13:14:14.216Z,20.77
2022-10-06T13:15:28.046Z,20.80
2022-10-06T13:16:39.507Z,20.81
2022-10-06T13:17:44.016Z,20.78
2022-10-06T13:18:48.047Z,20.79
2022-10-06T13:19:51.983Z,20.78
2022-10-06T13:20:59.205Z,20.75
2022-10-06T13:22:03.216Z,20.78
2022-10-06T13:23:11.817Z,20.80
2022-10-06T13:24:20.762Z,20.84
2022-10-06T13:25:23.582Z,20.90
2022-10-06T13:26:34.890Z,20.84
2022-10-06T13:27:40.330Z,20.79
2022-10-06T13:28:43.745Z,20.82
2022-10-06T13:29:46.450Z,20.88
2022-10-06T13:30:54.652Z,20.92
2022-10-06T13:31:57.900Z,20.93
2022-10-06T13:33:00.882Z,20.94
2022-10-06T13:34:09.601Z,20.89
2022-10-06T13:35:13.091Z,20.82
2022-10-06T13:36:17.013Z,20.76
2022-10-06T13:37:19.916Z,20.72
2022-10-06T13:38:23.127Z,20.69
2022-10-06T13:39:31.984Z,20.63
2022-10-06T13:40:50.405Z,20.60
2022-10-06T13:42:04.672Z,20.58
2022-10-06T13:43:17.227Z,20.55
2022-10-06T13:44:20.053Z,20.48
2022-10-06T13:45:24.192Z,20.43
2022-10-06T13:46:31.314Z,20.40
2022-10-06T13:47:34.449Z,20.42
2022-10-06T13:48:42.944Z,20.43
2022-10-06T13:50:06.122Z,20.38
2022-10-06T13:51:25.841Z,20.40
2022-10-06T13:52:39.596Z,20.31
2022-10-06T13:53:45.285Z,20.22
2022-10-06T13:54:57.012Z,20.22
2022-10-06T13:56:00.106Z,20.17
2022-10-06T13:57:02.786Z,20.18
2022-10-06T13:58:09.556Z,20.17
2022-10-06T13:59:16.301Z,20.14
2022-10-06T14:00:32.962Z,20.18
2022-10-06T14:01:35.728Z,20.13
2022-10-06T14:02:38.541Z,20.13
2022-10-06T14:03:41.400Z,20.10
2022-10-06T14:04:44.207Z,20.05
2022-10-06T14:05:47.214Z,20.01
2022-10-06T14:06:51.973Z,19.98
2022-10-06T14:07:58.651Z,19.99
2022-10-06T14:09:12.312Z,19.96
2022-10-06T14:10:21.923Z,19.88
2022-10-06T14:11:28.310Z,19.82
2022-10-06T14:12:33.027Z,19.76
2022-10-06T14:13:52.786Z,19.69
2022-10-06T14:14:55.738Z,19.68
2022-10-06T14:16:10.914Z,19.63
2022-10-06T14:17:25.917Z,19.60
2022-10-06T14:18:31.699Z,19.56
2022-10-06T14:19:40.994Z,19.51
2022-10-06T14:20:49.031Z,19.52
2022-10-06T14:21:51.801Z,19.49
2022-10-06T14:22:54.311Z,19.43
2022-10-06T14:23:57.934Z,19.39
2022-10-06T14:25:00.953Z,19.31
2022-10-06T14:26:03.708Z,19.26
2022-10-06T14:27:07.226Z,19.22
2022-10-06T14:28:10.316Z,19.21
2022-10-06T14:29:16.325Z,19.22
2022-10-06T14:30:19.040Z,19.15
2022-10-06T14:31:23.658Z,19.12
2022-10-06T14:32:26.384Z,19.12
2022-10-06T14:33:29.231Z,19.09
2022-10-06T14:34:31.848Z,19.09
2022-10-06T14:35:34.553Z,19.06
2022-10-06T14:36:37.638Z,19.02
2022-10-06T14:37:40.325Z,19.01
2022-10-06T14:38:43.018Z,19.00
2022-10-06T14:39:45.856Z,18.95
2022-10-06T14:40:48.468Z,18.95
2022-10-06T14:41:51.197Z,18.92
2022-10-06T14:42:53.811Z,18.86
2022-10-06T14:43:59.176Z,18.87
2022-10-06T14:45:02.963Z,18.88
2022-10-06T14:46:09.439Z,18.81
2022-10-06T14:47:13.141Z,18.80
2022-10-06T14:48:16.089Z,18.76
2022-10-06T14:49:19.686Z,18.68
2022-10-06T14:50:22.343Z,18.63
2022-10-06T14:51:26.725Z,18.62
2022-10-06T14:52:29.508Z,18.60
2022-10-06T14:53:32.194Z,18.70